Time;durP1;ratioP1;P1;durP2;ratioP2;P2;SDS_P1;SDS_P2;PMS_P1;PMS_P2;Temp;Humidity;BMP_temperature;BMP_pressure;BME280_temperature;BME280_humidity;BME280_pressure;Samples;Min_cycle;Max_cycle;Signal;HPM_P1;HPM_P2
2021/10/19 00:00:59;;;;;;;5.40;4.90;;;;;;;;;;4956269;29;20043;-73
2021/10/19 00:03:28;;;;;;;5.82;4.63;;;;;;;;;;4955924;29;20066;-74
2021/10/19 00:05:56;;;;;;;7.20;5.10;;;;;;;;;;4956179;29;20070;-73
2021/10/19 00:08:24;;;;;;;7.55;5.07;;;;;;;;;;4956455;29;20038;-72
2021/10/19 00:10:52;;;;;;;6.45;5.57;;;;;;;;;;4956523;29;20434;-72
2021/10/19 00:13:19;;;;;;;6.70;5.85;;;;;;;;;;4956002;29;20047;-74
2021/10/19 00:15:48;;;;;;;6.63;5.93;;;;;;;;;;4956116;29;20047;-74
2021/10/19 00:18:16;;;;;;;6.40;5.80;;;;;;;;;;4955763;29;20054;-73
2021/10/19 00:20:43;;;;;;;7.97;5.75;;;;;;;;;;4955839;29;20047;-73
2021/10/19 00:23:11;;;;;;;5.90;5.30;;;;;;;;;;4954919;28;20416;-73
2021/10/19 00:25:38;;;;;;;6.57;5.93;;;;;;;;;;4938759;29;20434;-72
2021/10/19 00:28:07;;;;;;;8.05;6.15;;;;;;;;;;4938831;29;20051;-74
2021/10/19 00:30:34;;;;;;;6.32;5.72;;;;;;;;;;4930569;29;20059;-72
2021/10/19 00:33:02;;;;;;;7.57;6.10;;;;;;;;;;4933184;29;20402;-73
2021/10/19 00:35:29;;;;;;;6.90;5.63;;;;;;;;;;4936705;29;20118;-74
2021/10/19 00:37:57;;;;;;;9.00;6.38;;;;;;;;;;4936500;29;20130;-74
2021/10/19 00:40:25;;;;;;;8.15;6.30;;;;;;;;;;4936381;29;20055;-73
2021/10/19 00:42:52;;;;;;;12.02;6.78;;;;;;;;;;4936210;29;20082;-73
2021/10/19 00:45:21;;;;;;;6.93;6.22;;;;;;;;;;4936266;29;20039;-72
2021/10/19 00:47:51;;;;;;;6.55;5.93;;;;;;;;;;4936478;29;20070;-74
2021/10/19 00:50:19;;;;;;;8.35;5.90;;;;;;;;;;4936627;29;20036;-72
2021/10/19 00:52:48;;;;;;;6.95;6.30;;;;;;;;;;4936281;29;20544;-73
2021/10/19 00:55:15;;;;;;;9.25;6.15;;;;;;;;;;4935952;29;20044;-72
2021/10/19 00:57:45;;;;;;;6.88;6.18;;;;;;;;;;4936406;29;20048;-72
2021/10/19 01:00:12;;;;;;;7.43;5.93;;;;;;;;;;4934479;29;20505;-72
2021/10/19 01:02:43;;;;;;;8.13;6.05;;;;;;;;;;4934685;29;20068;-72
2021/10/19 01:05:12;;;;;;;9.00;6.72;;;;;;;;;;4935937;29;20047;-74
2021/10/19 01:07:39;;;;;;;14.30;6.80;;;;;;;;;;4935914;29;20413;-72
2021/10/19 01:10:07;;;;;;;8.73;6.80;;;;;;;;;;4934593;29;20052;-74
2021/10/19 01:12:36;;;;;;;9.27;7.18;;;;;;;;;;4935856;29;20490;-71
2021/10/19 01:15:07;;;;;;;9.55;7.78;;;;;;;;;;4934266;29;20530;-72
2021/10/19 01:17:40;;;;;;;9.40;7.55;;;;;;;;;;4935613;29;20130;-72
2021/10/19 01:20:16;;;;;;;9.55;8.00;;;;;;;;;;4934539;29;20135;-72
2021/10/19 01:22:44;;;;;;;11.35;9.27;;;;;;;;;;4935829;29;20087;-73
2021/10/19 01:25:13;;;;;;;11.65;8.52;;;;;;;;;;4935934;29;20517;-73
2021/10/19 01:28:06;;;;;;;12.50;7.95;;;;;;;;;;4935037;29;20044;-73
2021/10/19 01:30:40;;;;;;;10.98;8.38;;;;;;;;;;4950392;29;20057;-73
2021/10/19 01:33:08;;;;;;;10.63;8.82;;;;;;;;;;4955049;29;20050;-73
2021/10/19 01:35:40;;;;;;;10.88;9.50;;;;;;;;;;4937794;29;20040;-71
2021/10/19 01:38:10;;;;;;;15.35;10.10;;;;;;;;;;4937532;29;20130;-72
2021/10/19 01:40:38;;;;;;;11.93;10.00;;;;;;;;;;4937464;29;20039;-73
2021/10/19 01:43:13;;;;;;;12.10;9.18;;;;;;;;;;4937118;29;20043;-72
2021/10/19 01:45:41;;;;;;;11.95;9.40;;;;;;;;;;4954471;29;20074;-74
2021/10/19 01:48:10;;;;;;;16.52;9.88;;;;;;;;;;4937496;29;20122;-73
2021/10/19 01:50:38;;;;;;;12.98;9.43;;;;;;;;;;4954950;29;20082;-72
2021/10/19 01:53:09;;;;;;;12.43;7.85;;;;;;;;;;4937271;29;20050;-73
2021/10/19 01:55:37;;;;;;;13.48;10.18;;;;;;;;;;4954439;29;20095;-73
2021/10/19 01:58:05;;;;;;;12.80;9.57;;;;;;;;;;4954285;29;20043;-73
2021/10/19 02:00:33;;;;;;;16.42;10.40;;;;;;;;;;4954323;29;20075;-72
2021/10/19 02:03:04;;;;;;;11.82;9.05;;;;;;;;;;4921667;29;20039;-71
2021/10/19 02:05:32;;;;;;;11.00;8.55;;;;;;;;;;4937586;29;20451;-73
2021/10/19 02:08:03;;;;;;;8.88;6.05;;;;;;;;;;4954517;29;20122;-73
2021/10/19 02:10:31;;;;;;;10.15;6.75;;;;;;;;;;4954963;29;20051;-73
2021/10/19 02:12:59;;;;;;;8.68;6.78;;;;;;;;;;4954211;29;20039;-73
2021/10/19 02:15:27;;;;;;;8.73;6.82;;;;;;;;;;4954501;29;20122;-71
2021/10/19 02:17:55;;;;;;;9.77;7.38;;;;;;;;;;4937179;29;20044;-71
2021/10/19 02:20:23;;;;;;;9.27;7.35;;;;;;;;;;4954455;29;20126;-73
2021/10/19 02:22:51;;;;;;;8.40;6.32;;;;;;;;;;4954395;29;20106;-71
2021/10/19 02:25:19;;;;;;;8.98;7.05;;;;;;;;;;4937281;29;20526;-73
2021/10/19 02:27:46;;;;;;;13.10;7.18;;;;;;;;;;4954032;29;20409;-73
2021/10/19 02:30:15;;;;;;;9.20;6.95;;;;;;;;;;4954219;29;20056;-73
2021/10/19 02:32:43;;;;;;;8.32;6.63;;;;;;;;;;4954422;29;20043;-72
2021/10/19 02:35:12;;;;;;;7.45;6.65;;;;;;;;;;4954620;29;20514;-72
2021/10/19 02:37:40;;;;;;;8.40;6.70;;;;;;;;;;4937003;29;20055;-71
2021/10/19 02:40:08;;;;;;;9.00;6.40;;;;;;;;;;4937270;29;20071;-73
2021/10/19 02:42:36;;;;;;;9.27;6.55;;;;;;;;;;4936630;29;20126;-71
2021/10/19 02:45:04;;;;;;;7.30;6.13;;;;;;;;;;4937457;29;20043;-71
2021/10/19 02:47:31;;;;;;;6.80;5.80;;;;;;;;;;4956428;28;20032;-74
2021/10/19 02:49:59;;;;;;;8.00;6.32;;;;;;;;;;4957672;29;20046;-71
2021/10/19 02:52:28;;;;;;;7.47;5.97;;;;;;;;;;4957926;29;20039;-73
2021/10/19 02:54:55;;;;;;;8.13;6.30;;;;;;;;;;4957673;29;20054;-71
2021/10/19 02:57:24;;;;;;;6.68;5.95;;;;;;;;;;4940210;29;20501;-72
2021/10/19 02:59:51;;;;;;;6.90;5.95;;;;;;;;;;4957510;29;20050;-73
2021/10/19 03:02:19;;;;;;;6.70;6.03;;;;;;;;;;4940497;29;20050;-73
2021/10/19 03:04:46;;;;;;;8.30;6.00;;;;;;;;;;4957145;29;20039;-71
2021/10/19 03:07:14;;;;;;;6.90;6.20;;;;;;;;;;4957541;29;20043;-72
2021/10/19 03:09:41;;;;;;;6.50;5.80;;;;;;;;;;4924758;29;20051;-71
2021/10/19 03:12:09;;;;;;;6.75;6.15;;;;;;;;;;4956968;29;20061;-73
2021/10/19 03:14:36;;;;;;;10.55;6.35;;;;;;;;;;4957683;29;20050;-71
2021/10/19 03:17:04;;;;;;;7.28;6.00;;;;;;;;;;4957485;29;20059;-73
2021/10/19 03:19:31;;;;;;;6.80;6.03;;;;;;;;;;4956939;29;20050;-73
2021/10/19 03:22:00;;;;;;;6.63;5.95;;;;;;;;;;4957144;29;20047;-73
2021/10/19 03:24:27;;;;;;;8.10;6.40;;;;;;;;;;4956800;29;20047;-73
2021/10/19 03:26:56;;;;;;;7.68;6.68;;;;;;;;;;4956583;29;20049;-71
2021/10/19 03:29:25;;;;;;;6.43;5.85;;;;;;;;;;4940121;29;20540;-72
2021/10/19 03:31:53;;;;;;;6.60;6.00;;;;;;;;;;4956746;29;20126;-74
2021/10/19 03:34:20;;;;;;;7.63;6.57;;;;;;;;;;4940111;29;20043;-73
2021/10/19 03:36:48;;;;;;;7.45;6.68;;;;;;;;;;4956996;29;20085;-71
2021/10/19 03:39:16;;;;;;;7.75;7.00;;;;;;;;;;4956623;29;20047;-71
2021/10/19 03:41:43;;;;;;;8.23;7.00;;;;;;;;;;4956337;29;20126;-73
2021/10/19 03:44:11;;;;;;;7.30;6.60;;;;;;;;;;4956634;29;20441;-73
2021/10/19 03:46:38;;;;;;;7.70;6.93;;;;;;;;;;4939251;29;20111;-71
2021/10/19 03:49:06;;;;;;;7.05;6.18;;;;;;;;;;4939457;29;20042;-73
2021/10/19 03:51:33;;;;;;;7.43;5.95;;;;;;;;;;4939647;29;20047;-74
2021/10/19 03:54:01;;;;;;;6.72;6.13;;;;;;;;;;4956130;29;20059;-73
2021/10/19 03:56:28;;;;;;;8.07;7.28;;;;;;;;;;4956081;29;20471;-73
2021/10/19 03:58:56;;;;;;;8.88;7.32;;;;;;;;;;4956398;28;20407;-74
2021/10/19 04:01:23;;;;;;;8.13;7.30;;;;;;;;;;4956460;29;20050;-73
2021/10/19 04:03:51;;;;;;;7.65;6.82;;;;;;;;;;4938971;29;20098;-73
2021/10/19 04:06:19;;;;;;;6.57;5.93;;;;;;;;;;4956021;29;20047;-72
2021/10/19 04:08:47;;;;;;;7.80;6.35;;;;;;;;;;4955661;29;20118;-73
2021/10/19 04:11:15;;;;;;;6.60;5.95;;;;;;;;;;4956158;29;20051;-71
2021/10/19 04:13:43;;;;;;;7.15;6.45;;;;;;;;;;4956212;29;20040;-71
2021/10/19 04:16:10;;;;;;;7.70;6.90;;;;;;;;;;4956872;29;20051;-73
2021/10/19 04:18:38;;;;;;;6.70;5.95;;;;;;;;;;4922826;29;20548;-73
2021/10/19 04:21:05;;;;;;;6.75;6.05;;;;;;;;;;4923108;29;20081;-73
2021/10/19 04:23:33;;;;;;;6.93;6.22;;;;;;;;;;4938632;29;20427;-73
2021/10/19 04:26:00;;;;;;;7.20;5.60;;;;;;;;;;4956034;29;20475;-73
2021/10/19 04:28:28;;;;;;;8.85;6.25;;;;;;;;;;4955911;29;20412;-73
2021/10/19 04:30:55;;;;;;;6.65;5.00;;;;;;;;;;4955897;29;20086;-72
2021/10/19 04:33:22;;;;;;;5.70;5.15;;;;;;;;;;4955999;29;20044;-72
2021/10/19 04:35:50;;;;;;;5.88;5.38;;;;;;;;;;4955431;29;20519;-72
2021/10/19 04:38:18;;;;;;;6.20;5.60;;;;;;;;;;4937787;29;20102;-73
2021/10/19 04:40:46;;;;;;;9.27;5.57;;;;;;;;;;4955405;29;20047;-71
2021/10/19 04:43:13;;;;;;;6.72;6.00;;;;;;;;;;4955351;29;20078;-73
2021/10/19 04:45:40;;;;;;;5.78;5.25;;;;;;;;;;4955381;29;20410;-72
2021/10/19 04:48:08;;;;;;;6.40;5.80;;;;;;;;;;4938519;29;20039;-73
2021/10/19 04:50:36;;;;;;;5.78;5.28;;;;;;;;;;4955041;29;20134;-73
2021/10/19 04:53:04;;;;;;;9.32;6.20;;;;;;;;;;4937769;29;20449;-72
2021/10/19 04:55:31;;;;;;;9.27;6.47;;;;;;;;;;4955163;29;20050;-73
2021/10/19 04:57:59;;;;;;;9.20;6.50;;;;;;;;;;4955274;29;20126;-71
2021/10/19 05:00:26;;;;;;;9.57;7.65;;;;;;;;;;4954977;29;20130;-72
2021/10/19 05:02:57;;;;;;;18.65;7.90;;;;;;;;;;4955729;29;20600;-74
2021/10/19 05:05:26;;;;;;;9.05;7.68;;;;;;;;;;4937962;29;20051;-72
2021/10/19 05:07:54;;;;;;;10.10;8.05;;;;;;;;;;4955085;29;20046;-72
2021/10/19 05:10:21;;;;;;;10.10;7.78;;;;;;;;;;4954881;28;20054;-74
2021/10/19 05:12:49;;;;;;;9.02;7.10;;;;;;;;;;4955020;29;20071;-74
2021/10/19 05:15:17;;;;;;;8.77;6.65;;;;;;;;;;4955023;29;20047;-74
2021/10/19 05:17:45;;;;;;;9.02;7.40;;;;;;;;;;4937645;29;20493;-74
2021/10/19 05:20:12;;;;;;;9.75;7.03;;;;;;;;;;4954596;29;20039;-74
2021/10/19 05:22:40;;;;;;;10.05;7.55;;;;;;;;;;4937573;29;20047;-75
2021/10/19 05:25:08;;;;;;;8.23;7.35;;;;;;;;;;4922001;29;20047;-75
2021/10/19 05:27:37;;;;;;;9.90;7.68;;;;;;;;;;4954583;29;20071;-72
2021/10/19 05:30:05;;;;;;;8.80;7.50;;;;;;;;;;4953766;29;20051;-74
2021/10/19 05:32:33;;;;;;;9.30;8.13;;;;;;;;;;4953026;29;20777;-75
2021/10/19 05:35:01;;;;;;;8.75;7.80;;;;;;;;;;4952563;29;20119;-74
2021/10/19 05:37:28;;;;;;;8.65;7.47;;;;;;;;;;4953544;29;20049;-75
2021/10/19 05:39:56;;;;;;;9.50;7.50;;;;;;;;;;4954249;29;20057;-75
2021/10/19 05:42:43;;;;;;;8.45;7.28;;;;;;;;;;4966509;28;20598;-75
2021/10/19 05:45:11;;;;;;;8.57;7.68;;;;;;;;;;4954779;29;20516;-74
2021/10/19 05:47:41;;;;;;;11.60;8.20;;;;;;;;;;4969228;28;20046;-73
2021/10/19 05:50:09;;;;;;;8.15;7.10;;;;;;;;;;4953975;29;20090;-72
2021/10/19 05:52:36;;;;;;;17.45;10.20;;;;;;;;;;4953375;29;20040;-75
2021/10/19 05:55:04;;;;;;;13.13;9.38;;;;;;;;;;4969116;28;20409;-73
2021/10/19 05:57:32;;;;;;;10.27;8.18;;;;;;;;;;4954518;29;20420;-74
2021/10/19 06:00:00;;;;;;;8.35;7.53;;;;;;;;;;4954515;29;20131;-74
2021/10/19 06:02:37;;;;;;;8.70;6.93;;;;;;;;;;4954025;29;20572;-74
2021/10/19 06:05:05;;;;;;;10.90;7.60;;;;;;;;;;4952941;29;20051;-73
2021/10/19 06:07:33;;;;;;;12.77;8.73;;;;;;;;;;4968803;28;20521;-74
2021/10/19 06:10:01;;;;;;;11.18;8.40;;;;;;;;;;4968658;28;20417;-75
2021/10/19 06:12:30;;;;;;;11.30;8.40;;;;;;;;;;4954117;29;20043;-73
2021/10/19 06:14:57;;;;;;;9.27;7.25;;;;;;;;;;4954205;29;20505;-72
2021/10/19 06:17:25;;;;;;;7.18;6.47;;;;;;;;;;4954158;29;20114;-72
2021/10/19 06:19:53;;;;;;;9.52;7.57;;;;;;;;;;4936466;29;20071;-75
2021/10/19 06:22:21;;;;;;;7.40;6.20;;;;;;;;;;4955810;28;20122;-75
2021/10/19 06:24:49;;;;;;;8.23;7.28;;;;;;;;;;4940273;29;20460;-72
2021/10/19 06:27:16;;;;;;;12.50;8.20;;;;;;;;;;4940664;29;20085;-74
2021/10/19 06:29:44;;;;;;;13.65;9.20;;;;;;;;;;4957705;29;20050;-73
2021/10/19 06:32:12;;;;;;;10.20;8.30;;;;;;;;;;4957462;29;20404;-73
2021/10/19 06:34:39;;;;;;;11.48;8.65;;;;;;;;;;4957436;29;20047;-74
2021/10/19 06:37:07;;;;;;;12.18;9.90;;;;;;;;;;4940621;29;20082;-73
2021/10/19 06:39:35;;;;;;;13.70;11.13;;;;;;;;;;4957580;29;20633;-74
2021/10/19 06:42:03;;;;;;;17.40;12.73;;;;;;;;;;4957585;29;20047;-73
2021/10/19 06:44:31;;;;;;;10.98;9.80;;;;;;;;;;4957003;29;20067;-75
2021/10/19 06:47:13;;;;;;;15.00;11.25;;;;;;;;;;4970410;28;20046;-74
2021/10/19 06:49:40;;;;;;;15.05;12.02;;;;;;;;;;4957520;29;20495;-74
2021/10/19 06:52:08;;;;;;;16.35;11.35;;;;;;;;;;4957538;29;20489;-75
2021/10/19 06:54:35;;;;;;;21.27;12.10;;;;;;;;;;4957307;29;20525;-74
2021/10/19 06:57:03;;;;;;;14.57;11.25;;;;;;;;;;4957394;29;20058;-73
2021/10/19 06:59:30;;;;;;;12.00;10.60;;;;;;;;;;4972018;28;20047;-73
2021/10/19 07:01:59;;;;;;;15.38;9.43;;;;;;;;;;4956936;29;20097;-73
2021/10/19 07:04:27;;;;;;;15.05;8.88;;;;;;;;;;4957076;29;20568;-72
2021/10/19 07:06:54;;;;;;;9.38;7.10;;;;;;;;;;4956879;29;20051;-74
2021/10/19 07:09:22;;;;;;;13.43;8.10;;;;;;;;;;4939767;29;20425;-73
2021/10/19 07:11:49;;;;;;;6.93;6.15;;;;;;;;;;4956992;29;20143;-72
2021/10/19 07:14:17;;;;;;;7.50;6.57;;;;;;;;;;4956871;29;20122;-72
2021/10/19 07:16:44;;;;;;;10.40;6.80;;;;;;;;;;4939631;29;20043;-73
2021/10/19 07:19:12;;;;;;;15.35;6.70;;;;;;;;;;4939539;29;20134;-73
2021/10/19 07:21:39;;;;;;;13.95;7.60;;;;;;;;;;4956661;29;20071;-73
2021/10/19 07:24:07;;;;;;;10.00;6.82;;;;;;;;;;4956847;29;20047;-74
2021/10/19 07:26:35;;;;;;;8.38;6.63;;;;;;;;;;4956678;29;20043;-74
2021/10/19 07:29:03;;;;;;;10.35;5.78;;;;;;;;;;4971096;28;20054;-74
2021/10/19 07:31:31;;;;;;;10.10;5.60;;;;;;;;;;4956381;29;20043;-75
2021/10/19 07:33:58;;;;;;;7.75;5.50;;;;;;;;;;4970835;28;20405;-73
2021/10/19 07:36:26;;;;;;;9.90;5.50;;;;;;;;;;4971196;28;20126;-74
2021/10/19 07:38:53;;;;;;;9.30;5.53;;;;;;;;;;4956597;29;20054;-73
2021/10/19 07:41:22;;;;;;;10.52;5.60;;;;;;;;;;4956797;29;20050;-74
2021/10/19 07:43:49;;;;;;;7.03;4.30;;;;;;;;;;4956240;29;20047;-73
2021/10/19 07:46:18;;;;;;;6.78;3.60;;;;;;;;;;4955882;29;20046;-74
2021/10/19 07:48:46;;;;;;;3.70;2.58;;;;;;;;;;4939245;29;20058;-73
2021/10/19 07:51:16;;;;;;;3.15;2.80;;;;;;;;;;4956515;29;20488;-73
2021/10/19 07:53:44;;;;;;;4.45;2.85;;;;;;;;;;4971020;28;20412;-75
2021/10/19 07:56:13;;;;;;;6.57;2.95;;;;;;;;;;4956405;29;20445;-73
2021/10/19 07:58:43;;;;;;;6.35;3.45;;;;;;;;;;4938910;29;20495;-73
2021/10/19 08:01:10;;;;;;;8.68;4.63;;;;;;;;;;4955841;29;20054;-73
2021/10/19 08:03:38;;;;;;;6.32;3.95;;;;;;;;;;4956011;29;20071;-73
2021/10/19 08:06:05;;;;;;;5.55;3.90;;;;;;;;;;4956111;29;20126;-74
2021/10/19 08:08:35;;;;;;;6.63;4.38;;;;;;;;;;4956105;29;20043;-73
2021/10/19 08:11:04;;;;;;;7.13;4.50;;;;;;;;;;4955892;29;20417;-74
2021/10/19 08:13:33;;;;;;;5.13;3.22;;;;;;;;;;4955646;29;20151;-73
2021/10/19 08:16:02;;;;;;;6.78;3.42;;;;;;;;;;4955776;29;20043;-74
2021/10/19 08:18:30;;;;;;;4.43;3.58;;;;;;;;;;4955821;29;20501;-74
2021/10/19 08:21:02;;;;;;;18.60;10.27;;;;;;;;;;4955617;29;20047;-73
2021/10/19 08:23:30;;;;;;;11.38;6.75;;;;;;;;;;4955709;29;20043;-73
2021/10/19 08:25:58;;;;;;;8.68;4.68;;;;;;;;;;4938029;29;20035;-72
2021/10/19 08:28:29;;;;;;;5.45;3.85;;;;;;;;;;4993539;23;20517;-73
2021/10/19 08:31:17;;;;;;;3.60;3.03;;;;;;;;;;4992352;28;20054;-75
2021/10/19 08:33:45;;;;;;;4.13;3.30;;;;;;;;;;4977709;28;20101;-75
2021/10/19 08:36:13;;;;;;;5.97;3.33;;;;;;;;;;4974763;28;20066;-79
2021/10/19 08:38:43;;;;;;;4.22;3.28;;;;;;;;;;4973660;28;20039;-75
2021/10/19 08:41:12;;;;;;;7.95;3.60;;;;;;;;;;4974246;28;20184;-78
2021/10/19 08:43:39;;;;;;;5.05;3.22;;;;;;;;;;4972670;28;20070;-78
2021/10/19 08:46:12;;;;;;;4.30;3.15;;;;;;;;;;4973568;28;20034;-78
2021/10/19 08:48:40;;;;;;;6.30;3.28;;;;;;;;;;4974172;28;20043;-78
2021/10/19 08:51:13;;;;;;;7.50;3.20;;;;;;;;;;4973036;28;20054;-76
2021/10/19 08:53:42;;;;;;;4.25;3.45;;;;;;;;;;4974365;28;20058;-75
2021/10/19 08:56:11;;;;;;;5.55;3.05;;;;;;;;;;4972692;28;20046;-74
2021/10/19 08:58:40;;;;;;;5.88;3.50;;;;;;;;;;4973745;28;20575;-75
2021/10/19 09:01:09;;;;;;;6.53;3.22;;;;;;;;;;4974047;28;20039;-77
2021/10/19 09:03:50;;;;;;;5.93;3.60;;;;;;;;;;4974122;28;20031;-75
2021/10/19 09:06:18;;;;;;;4.43;3.30;;;;;;;;;;4972388;28;20081;-75
2021/10/19 09:08:52;;;;;;;9.80;3.42;;;;;;;;;;4973934;28;20043;-78
2021/10/19 09:11:19;;;;;;;4.00;3.50;;;;;;;;;;4973767;28;20496;-77
2021/10/19 09:13:52;;;;;;;5.75;3.95;;;;;;;;;;4972217;28;20053;-75
2021/10/19 09:16:37;;;;;;;4.57;3.17;;;;;;;;;;4973895;28;20074;-78
2021/10/19 09:19:10;;;;;;;4.60;3.38;;;;;;;;;;4973750;28;20046;-78
2021/10/19 09:22:01;;;;;;;4.53;3.55;;;;;;;;;;4973421;28;20137;-77
2021/10/19 09:24:33;;;;;;;6.30;4.00;;;;;;;;;;4973719;28;20070;-78
2021/10/19 09:27:09;;;;;;;8.20;4.00;;;;;;;;;;4973002;28;20078;-75
2021/10/19 09:29:47;;;;;;;7.40;3.67;;;;;;;;;;4972763;28;20078;-78
2021/10/19 09:32:16;;;;;;;6.05;3.40;;;;;;;;;;4971955;28;20074;-78
2021/10/19 09:34:45;;;;;;;5.05;3.35;;;;;;;;;;4972361;28;20034;-78
2021/10/19 09:37:19;;;;;;;8.05;3.92;;;;;;;;;;4972422;28;20046;-74
2021/10/19 09:39:51;;;;;;;4.35;2.90;;;;;;;;;;4971876;28;20043;-78
2021/10/19 09:42:18;;;;;;;5.35;3.22;;;;;;;;;;4972972;28;20042;-74
2021/10/19 09:44:59;;;;;;;6.47;3.20;;;;;;;;;;4973277;28;20105;-75
2021/10/19 09:47:26;;;;;;;10.73;3.47;;;;;;;;;;4973940;28;20035;-74
2021/10/19 09:49:56;;;;;;;8.30;3.60;;;;;;;;;;4972201;28;20408;-78
2021/10/19 09:52:23;;;;;;;9.60;3.53;;;;;;;;;;4973311;28;20047;-74
2021/10/19 09:54:54;;;;;;;4.30;3.47;;;;;;;;;;4973143;28;20047;-75
2021/10/19 09:57:24;;;;;;;6.10;3.95;;;;;;;;;;4975212;28;20467;-75
2021/10/19 09:59:52;;;;;;;5.72;4.60;;;;;;;;;;4975947;28;20047;-75
2021/10/19 10:02:20;;;;;;;8.38;5.13;;;;;;;;;;4976211;28;20038;-78
2021/10/19 10:04:49;;;;;;;8.15;5.50;;;;;;;;;;4975584;28;20051;-75
2021/10/19 10:07:21;;;;;;;9.77;5.55;;;;;;;;;;4975538;28;20467;-75
2021/10/19 10:09:48;;;;;;;8.95;5.13;;;;;;;;;;4975682;28;20121;-75
2021/10/19 10:12:27;;;;;;;8.02;4.93;;;;;;;;;;4976125;28;20039;-78
2021/10/19 10:14:58;;;;;;;6.50;5.35;;;;;;;;;;4976444;28;20039;-75
2021/10/19 10:17:26;;;;;;;11.77;5.70;;;;;;;;;;4975488;28;20504;-78
2021/10/19 10:20:04;;;;;;;9.48;5.35;;;;;;;;;;4976878;28;20053;-75
2021/10/19 10:22:32;;;;;;;13.40;6.15;;;;;;;;;;4976646;28;20193;-75
2021/10/19 10:25:06;;;;;;;7.13;5.70;;;;;;;;;;4976659;28;20050;-75
2021/10/19 10:27:34;;;;;;;7.45;5.35;;;;;;;;;;4976736;28;20043;-75
2021/10/19 10:30:03;;;;;;;7.95;4.97;;;;;;;;;;4958786;28;20047;-75
2021/10/19 10:32:36;;;;;;;7.20;4.63;;;;;;;;;;4976807;28;20046;-78
2021/10/19 10:35:14;;;;;;;9.90;4.63;;;;;;;;;;4976750;28;20049;-75
2021/10/19 10:37:54;;;;;;;7.90;4.60;;;;;;;;;;4976767;28;20074;-78
2021/10/19 10:40:29;;;;;;;4.82;3.70;;;;;;;;;;4976594;28;20038;-78
2021/10/19 10:42:59;;;;;;;4.68;3.55;;;;;;;;;;4976595;28;20137;-78
2021/10/19 10:45:27;;;;;;;8.05;4.07;;;;;;;;;;4976356;28;20499;-78
2021/10/19 10:47:58;;;;;;;6.80;3.60;;;;;;;;;;4976610;28;20129;-75
2021/10/19 10:50:26;;;;;;;5.63;3.30;;;;;;;;;;4976269;28;20039;-75
2021/10/19 10:53:01;;;;;;;5.50;3.33;;;;;;;;;;4959236;28;20035;-78
2021/10/19 10:55:33;;;;;;;5.82;3.40;;;;;;;;;;4975982;28;20047;-75
2021/10/19 10:58:01;;;;;;;5.45;3.20;;;;;;;;;;4976246;28;20043;-77
2021/10/19 11:00:28;;;;;;;5.65;3.55;;;;;;;;;;4975059;28;20047;-77
2021/10/19 11:03:10;;;;;;;5.80;3.40;;;;;;;;;;4976080;28;20042;-75
2021/10/19 11:05:39;;;;;;;5.40;3.22;;;;;;;;;;4975968;28;20455;-75
2021/10/19 11:08:07;;;;;;;3.85;2.70;;;;;;;;;;4974732;28;20431;-75
2021/10/19 11:10:34;;;;;;;7.03;3.10;;;;;;;;;;4974612;28;20047;-77
2021/10/19 11:13:03;;;;;;;3.78;3.47;;;;;;;;;;4975765;28;20049;-75
2021/10/19 11:15:31;;;;;;;4.57;3.13;;;;;;;;;;4975657;28;20049;-78
2021/10/19 11:17:58;;;;;;;4.70;2.90;;;;;;;;;;4974667;28;20087;-77
2021/10/19 11:20:27;;;;;;;4.95;3.30;;;;;;;;;;4975633;28;20126;-78
2021/10/19 11:22:54;;;;;;;5.88;2.97;;;;;;;;;;4975441;28;20109;-77
2021/10/19 11:25:22;;;;;;;4.95;2.92;;;;;;;;;;4974481;28;20496;-75
2021/10/19 11:27:51;;;;;;;5.15;3.30;;;;;;;;;;4974031;28;20576;-78
2021/10/19 11:30:19;;;;;;;5.80;3.10;;;;;;;;;;4975482;28;20473;-75
2021/10/19 11:32:46;;;;;;;4.45;2.60;;;;;;;;;;4958367;28;20066;-75
2021/10/19 11:35:15;;;;;;;4.45;2.50;;;;;;;;;;4975129;28;20039;-78
2021/10/19 11:37:43;;;;;;;2.85;2.50;;;;;;;;;;4975024;28;20043;-76
2021/10/19 11:40:12;;;;;;;4.38;2.88;;;;;;;;;;4974214;28;20046;-78
2021/10/19 11:42:51;;;;;;;5.97;2.80;;;;;;;;;;4974231;28;20357;-76
2021/10/19 11:45:19;;;;;;;3.47;2.25;;;;;;;;;;4974304;28;20047;-78
2021/10/19 11:47:52;;;;;;;4.18;2.42;;;;;;;;;;4975153;28;20097;-75
2021/10/19 11:50:21;;;;;;;7.28;3.10;;;;;;;;;;4975831;28;20050;-78
2021/10/19 11:52:49;;;;;;;5.45;2.10;;;;;;;;;;4973993;28;20043;-75
2021/10/19 11:55:17;;;;;;;3.10;2.40;;;;;;;;;;4974000;28;20129;-78
2021/10/19 11:57:53;;;;;;;2.67;2.40;;;;;;;;;;4975290;28;20042;-76
2021/10/19 12:00:23;;;;;;;4.88;2.22;;;;;;;;;;4975857;28;20042;-76
2021/10/19 12:02:50;;;;;;;4.68;2.45;;;;;;;;;;4957484;28;20050;-75
2021/10/19 12:05:20;;;;;;;5.75;2.70;;;;;;;;;;4975559;28;20571;-77
2021/10/19 12:07:50;;;;;;;4.88;2.67;;;;;;;;;;4973277;28;20039;-75
2021/10/19 12:10:25;;;;;;;3.70;3.00;;;;;;;;;;4975307;28;20117;-78
2021/10/19 12:13:12;;;;;;;3.17;2.35;;;;;;;;;;4975402;28;20074;-76
2021/10/19 12:15:41;;;;;;;7.47;2.55;;;;;;;;;;4975250;28;20117;-75
2021/10/19 12:18:16;;;;;;;3.47;2.60;;;;;;;;;;4973912;28;20042;-75
2021/10/19 12:20:44;;;;;;;2.83;2.50;;;;;;;;;;4974458;28;20039;-78
2021/10/19 12:23:12;;;;;;;4.32;2.20;;;;;;;;;;4975063;28;20067;-76
2021/10/19 12:25:45;;;;;;;3.05;2.20;;;;;;;;;;4971045;28;20531;-78
2021/10/19 12:28:23;;;;;;;6.00;2.55;;;;;;;;;;4951861;29;20047;-75
2021/10/19 12:30:51;;;;;;;3.97;2.60;;;;;;;;;;4951797;29;20047;-75
2021/10/19 12:33:20;;;;;;;2.80;2.30;;;;;;;;;;4954809;28;20070;-76
2021/10/19 12:36:03;;;;;;;4.40;2.38;;;;;;;;;;4938481;29;20045;-77
2021/10/19 12:38:33;;;;;;;2.92;2.45;;;;;;;;;;4955549;28;20125;-75
2021/10/19 12:41:27;;;;;;;2.60;2.40;;;;;;;;;;4955878;28;20047;-79
2021/10/19 12:43:57;;;;;;;3.78;2.30;;;;;;;;;;4937614;29;20086;-76
2021/10/19 12:46:29;;;;;;;5.72;2.63;;;;;;;;;;4954393;29;20079;-75
2021/10/19 12:48:59;;;;;;;6.10;2.50;;;;;;;;;;4955580;28;20094;-76
2021/10/19 12:51:27;;;;;;;4.93;2.45;;;;;;;;;;4938078;29;20135;-75
2021/10/19 12:53:56;;;;;;;5.03;2.63;;;;;;;;;;4954112;28;20381;-75
2021/10/19 12:56:25;;;;;;;3.63;2.53;;;;;;;;;;4955188;28;20070;-75
2021/10/19 12:58:53;;;;;;;4.57;2.30;;;;;;;;;;4955340;28;20501;-75
2021/10/19 13:01:20;;;;;;;3.15;2.30;;;;;;;;;;4955349;28;20075;-79
2021/10/19 13:03:49;;;;;;;6.65;2.60;;;;;;;;;;4953559;29;20460;-74
2021/10/19 13:06:18;;;;;;;3.42;2.33;;;;;;;;;;4954727;28;20469;-79
2021/10/19 13:08:47;;;;;;;4.40;2.55;;;;;;;;;;4954087;29;20396;-77
2021/10/19 13:11:15;;;;;;;2.60;2.40;;;;;;;;;;4955256;28;20049;-75
2021/10/19 13:13:43;;;;;;;2.50;2.30;;;;;;;;;;4955281;28;20046;-75
2021/10/19 13:16:10;;;;;;;3.17;2.40;;;;;;;;;;4954163;29;20442;-79
2021/10/19 13:18:39;;;;;;;3.15;2.35;;;;;;;;;;4954748;28;20039;-76
2021/10/19 13:21:07;;;;;;;7.63;3.20;;;;;;;;;;4954565;28;20477;-75
2021/10/19 13:23:35;;;;;;;7.28;2.20;;;;;;;;;;4955029;28;20362;-76
2021/10/19 13:26:03;;;;;;;2.38;2.10;;;;;;;;;;4955220;28;20039;-74
2021/10/19 13:28:31;;;;;;;2.38;2.17;;;;;;;;;;4954687;28;20065;-78
2021/10/19 13:30:59;;;;;;;3.50;2.40;;;;;;;;;;4952997;28;20389;-79
2021/10/19 13:33:27;;;;;;;4.05;2.20;;;;;;;;;;4937637;29;20100;-77
2021/10/19 13:36:02;;;;;;;4.95;2.50;;;;;;;;;;4969333;28;20050;-79
2021/10/19 13:38:30;;;;;;;7.90;2.40;;;;;;;;;;4951901;28;20087;-79
2021/10/19 13:40:59;;;;;;;2.78;2.28;;;;;;;;;;4950673;29;20059;-75
2021/10/19 13:43:27;;;;;;;2.80;2.15;;;;;;;;;;4952058;28;20069;-75
2021/10/19 13:45:55;;;;;;;5.22;2.60;;;;;;;;;;4950363;29;20501;-79
2021/10/19 13:48:24;;;;;;;2.70;2.28;;;;;;;;;;4949421;29;20142;-77
2021/10/19 13:50:55;;;;;;;4.55;2.20;;;;;;;;;;4968408;28;20448;-75
2021/10/19 13:53:25;;;;;;;5.20;2.25;;;;;;;;;;4972630;28;20129;-78
2021/10/19 13:55:53;;;;;;;3.40;2.22;;;;;;;;;;4972455;28;20102;-76
2021/10/19 13:58:22;;;;;;;4.60;2.10;;;;;;;;;;4973356;28;20544;-80
2021/10/19 14:00:50;;;;;;;2.35;2.05;;;;;;;;;;4941356;29;20101;-79
2021/10/19 14:03:19;;;;;;;5.00;2.15;;;;;;;;;;4956176;28;20047;-78
2021/10/19 14:05:46;;;;;;;2.42;2.20;;;;;;;;;;4957302;28;20058;-77
2021/10/19 14:08:15;;;;;;;6.47;2.17;;;;;;;;;;4973011;28;20035;-76
2021/10/19 14:10:44;;;;;;;4.47;2.30;;;;;;;;;;4972486;28;20133;-77
2021/10/19 14:13:14;;;;;;;5.18;2.60;;;;;;;;;;4973308;28;20043;-75
2021/10/19 14:15:43;;;;;;;7.70;2.60;;;;;;;;;;4973331;28;20051;-76
2021/10/19 14:18:15;;;;;;;6.43;3.22;;;;;;;;;;4972643;28;20047;-75
2021/10/19 14:20:43;;;;;;;;;;;;;;;;;;4974054;28;20074;-79
2021/10/19 14:23:12;;;;;;;2.83;2.20;;;;;;;;;;4973214;28;19928;-77
2021/10/19 14:25:40;;;;;;;5.10;2.65;;;;;;;;;;4972371;28;20046;-76
2021/10/19 14:28:12;;;;;;;3.25;2.50;;;;;;;;;;4973673;28;20503;-77
2021/10/19 14:30:39;;;;;;;6.00;2.33;;;;;;;;;;4973767;28;20130;-79
2021/10/19 14:33:07;;;;;;;5.88;2.58;;;;;;;;;;4972263;28;20046;-77
2021/10/19 14:35:34;;;;;;;4.13;2.70;;;;;;;;;;4973518;28;20035;-74
2021/10/19 14:38:03;;;;;;;4.85;2.70;;;;;;;;;;4971431;28;20047;-78
2021/10/19 14:40:31;;;;;;;3.65;2.45;;;;;;;;;;4971785;28;20500;-75
2021/10/19 14:42:59;;;;;;;5.90;2.90;;;;;;;;;;4974703;28;20057;-79
2021/10/19 14:45:28;;;;;;;3.72;2.75;;;;;;;;;;4976977;28;20043;-76
2021/10/19 14:47:58;;;;;;;3.55;2.50;;;;;;;;;;4976860;28;20126;-79
2021/10/19 14:50:32;;;;;;;4.72;2.80;;;;;;;;;;4976750;28;20047;-77
2021/10/19 14:52:59;;;;;;;3.33;2.40;;;;;;;;;;4976915;28;20039;-79